createdAt,value
2023-04-14T00:00:54.462Z,93721.69
2023-04-14T00:01:51.466Z,93771.44
2023-04-14T00:02:48.283Z,93765.09
2023-04-14T00:03:45.750Z,93733.34
2023-04-14T00:04:42.857Z,93772.50
2023-04-14T00:05:39.662Z,93785.72
2023-04-14T00:06:36.496Z,93777.78
2023-04-14T00:07:33.279Z,93774.59
2023-04-14T00:08:30.107Z,93752.63
2023-04-14T00:09:27.048Z,93679.31
2023-04-14T00:10:24.367Z,93769.88
2023-04-14T00:11:21.247Z,93762.19
2023-04-14T00:12:18.179Z,93732.75
2023-04-14T00:13:14.909Z,93767.72
2023-04-14T00:14:11.626Z,93713.69
2023-04-14T00:15:08.925Z,93752.34
2023-04-14T00:16:07.163Z,93766.09
2023-04-14T00:17:03.994Z,93773.72
2023-04-14T00:18:00.972Z,93738.00
2023-04-14T00:18:57.888Z,93770.03
2023-04-14T00:19:54.867Z,93742.25
2023-04-14T00:20:51.619Z,93746.00
2023-04-14T00:21:48.350Z,93641.72
2023-04-14T00:22:45.158Z,93743.31
2023-04-14T00:23:42.170Z,93759.72
2023-04-14T00:24:43.459Z,93740.63
2023-04-14T00:25:40.360Z,93756.56
2023-04-14T00:26:37.152Z,93751.00
2023-04-14T00:27:33.921Z,93733.53
2023-04-14T00:28:30.694Z,93726.09
2023-04-14T00:29:27.440Z,93757.91
2023-04-14T00:30:24.242Z,93756.59
2023-04-14T00:31:21.021Z,93694.38
2023-04-14T00:32:17.984Z,93760.78
2023-04-14T00:33:14.838Z,93676.63
2023-04-14T00:34:11.600Z,93652.28
2023-04-14T00:35:08.681Z,93747.00
2023-04-14T00:36:05.690Z,93773.22
2023-04-14T00:37:02.410Z,93737.47
2023-04-14T00:37:59.251Z,93754.91
2023-04-14T00:38:56.156Z,93699.56
2023-04-14T00:39:52.931Z,93766.28
2023-04-14T00:40:49.642Z,93756.00
2023-04-14T00:41:46.343Z,93747.78
2023-04-14T00:42:47.136Z,93757.03
2023-04-14T00:43:44.003Z,93764.19
2023-04-14T00:44:40.794Z,93754.38
2023-04-14T00:45:47.742Z,93716.81
2023-04-14T00:46:44.615Z,93756.53
2023-04-14T00:47:46.983Z,93747.56
2023-04-14T00:48:44.209Z,93682.94
2023-04-14T00:49:42.064Z,93762.63
2023-04-14T00:50:39.074Z,93755.50
2023-04-14T00:51:36.747Z,93654.91
2023-04-14T00:52:33.603Z,93758.66
2023-04-14T00:53:32.217Z,93749.91
2023-04-14T00:54:31.244Z,93681.31
2023-04-14T00:55:28.307Z,93753.34
2023-04-14T00:56:29.813Z,93734.75
2023-04-14T00:57:27.277Z,93750.88
2023-04-14T00:58:25.389Z,93736.59
2023-04-14T00:59:22.400Z,93743.78
2023-04-14T01:00:19.762Z,93740.59
2023-04-14T01:01:16.751Z,93751.47
2023-04-14T01:02:13.717Z,93715.50
2023-04-14T01:03:10.997Z,93749.63
2023-04-14T01:04:08.750Z,93694.06
2023-04-14T01:05:06.757Z,93723.97
2023-04-14T01:06:03.697Z,93753.31
2023-04-14T01:07:00.591Z,93743.28
2023-04-14T01:07:58.141Z,93744.88
2023-04-14T01:08:56.520Z,93742.78
2023-04-14T01:09:57.254Z,93744.13
2023-04-14T01:11:22.534Z,93729.56
2023-04-14T01:12:54.581Z,93713.16
2023-04-14T01:14:06.501Z,93747.50
2023-04-14T01:15:06.517Z,93748.84
2023-04-14T01:16:19.179Z,93748.00
2023-04-14T01:17:29.055Z,93751.56
2023-04-14T01:18:47.276Z,93754.75
2023-04-14T01:19:56.069Z,93750.56
2023-04-14T01:20:59.308Z,93703.16
2023-04-14T01:22:03.864Z,93719.94
2023-04-14T01:23:08.519Z,93749.09
2023-04-14T01:24:43.340Z,93700.84
2023-04-14T01:25:42.767Z,93749.03
2023-04-14T01:26:41.547Z,93741.91
2023-04-14T01:27:46.211Z,93747.44
2023-04-14T01:29:01.620Z,93736.56
2023-04-14T01:30:35.217Z,93735.19
2023-04-14T01:31:36.680Z,93625.59
2023-04-14T01:32:39.655Z,93740.53
2023-04-14T01:33:40.473Z,93695.53
2023-04-14T01:34:43.045Z,93746.59
2023-04-14T01:35:51.178Z,93747.97
2023-04-14T01:37:14.989Z,93697.72
2023-04-14T01:38:22.400Z,93711.75
2023-04-14T01:39:24.804Z,93738.47
2023-04-14T01:40:26.061Z,93723.66
2023-04-14T01:41:25.846Z,93736.88
2023-04-14T01:42:29.389Z,93737.44
2023-04-14T01:43:30.817Z,93731.38
2023-04-14T01:44:30.822Z,93732.13
2023-04-14T01:45:34.256Z,93713.03
2023-04-14T01:46:34.737Z,93671.81
2023-04-14T01:47:33.284Z,93712.03
2023-04-14T01:48:32.816Z,93742.69
2023-04-14T01:49:33.763Z,93737.66
2023-04-14T01:50:33.347Z,93684.47
2023-04-14T01:51:33.828Z,93708.53
2023-04-14T01:52:32.551Z,93696.06
2023-04-14T01:53:32.867Z,93720.72
2023-04-14T01:54:32.703Z,93728.66
2023-04-14T01:55:33.396Z,93728.97
2023-04-14T01:56:33.962Z,93730.00
2023-04-14T01:57:33.625Z,93691.88
2023-04-14T01:58:32.437Z,93681.81
2023-04-14T01:59:32.233Z,93707.78
2023-04-14T02:00:30.542Z,93677.59
2023-04-14T02:01:29.634Z,93732.13
2023-04-14T02:02:29.081Z,93735.88
2023-04-14T02:03:27.753Z,93717.84
2023-04-14T02:04:29.082Z,93735.88
2023-04-14T02:05:28.182Z,93677.03
2023-04-14T02:06:27.638Z,93740.88
2023-04-14T02:07:26.636Z,93743.81
2023-04-14T02:08:24.383Z,93739.00
2023-04-14T02:09:23.290Z,93742.69
2023-04-14T02:10:21.793Z,93720.69
2023-04-14T02:11:21.441Z,93668.03
2023-04-14T02:12:20.660Z,93732.13
2023-04-14T02:13:21.562Z,93716.25
2023-04-14T02:14:21.606Z,93733.00
2023-04-14T02:15:22.329Z,93715.75
2023-04-14T02:16:20.666Z,93720.75
2023-04-14T02:17:21.566Z,93645.25
2023-04-14T02:18:22.252Z,93742.16
2023-04-14T02:19:21.821Z,93707.72
2023-04-14T02:20:21.769Z,93754.84
2023-04-14T02:21:24.755Z,93726.81
2023-04-14T02:22:21.632Z,93720.72
2023-04-14T02:23:18.991Z,93723.06
2023-04-14T02:24:15.905Z,93733.59
2023-04-14T02:25:13.127Z,93740.06
2023-04-14T02:26:21.781Z,93730.59
2023-04-14T02:27:38.665Z,93732.97
2023-04-14T02:28:43.245Z,93692.22
2023-04-14T02:29:45.318Z,93748.56
2023-04-14T02:30:48.049Z,93616.28
2023-04-14T02:31:52.956Z,93733.19
2023-04-14T02:32:56.819Z,93739.78
2023-04-14T02:33:57.890Z,93730.69
2023-04-14T02:35:03.570Z,93727.75
2023-04-14T02:36:16.838Z,93676.66
2023-04-14T02:37:25.545Z,93731.06
2023-04-14T02:38:29.841Z,93731.03
2023-04-14T02:39:32.220Z,93740.25
2023-04-14T02:40:35.382Z,93685.00
2023-04-14T02:41:34.054Z,93710.41
2023-04-14T02:42:36.188Z,93716.97
2023-04-14T02:43:42.580Z,93727.63
2023-04-14T02:44:48.714Z,93695.03
2023-04-14T02:45:50.777Z,93725.22
2023-04-14T02:47:07.920Z,93722.53
2023-04-14T02:48:14.325Z,93715.72
2023-04-14T02:49:16.548Z,93667.84
2023-04-14T02:50:18.004Z,93689.25
2023-04-14T02:51:18.039Z,93716.47
2023-04-14T02:52:19.228Z,93713.06
2023-04-14T02:53:24.200Z,93715.19
2023-04-14T02:54:23.476Z,93715.72
2023-04-14T02:55:23.216Z,93693.56
2023-04-14T02:56:21.799Z,93694.91
2023-04-14T02:57:19.352Z,93676.31
2023-04-14T02:58:16.967Z,93708.31
2023-04-14T02:59:14.016Z,93668.03
2023-04-14T03:00:13.394Z,93701.94
2023-04-14T03:01:11.439Z,93698.22
2023-04-14T03:02:10.487Z,93699.03
2023-04-14T03:03:08.149Z,93684.97
2023-04-14T03:04:06.287Z,93672.31
2023-04-14T03:05:05.119Z,93633.88
2023-04-14T03:06:02.643Z,93692.44
2023-04-14T03:07:01.938Z,93649.59
2023-04-14T03:08:04.217Z,93695.66
2023-04-14T03:09:03.686Z,93702.06
2023-04-14T03:10:03.838Z,93698.06
2023-04-14T03:11:02.889Z,93702.28
2023-04-14T03:12:03.015Z,93648.50
2023-04-14T03:13:02.316Z,93691.41
2023-04-14T03:14:00.461Z,93700.38
2023-04-14T03:14:59.280Z,93640.03
2023-04-14T03:15:58.540Z,93704.13
2023-04-14T03:16:57.086Z,93660.47
2023-04-14T03:17:57.417Z,93704.06
2023-04-14T03:18:55.555Z,93708.00
2023-04-14T03:19:54.030Z,93709.78
2023-04-14T03:20:53.528Z,93714.28
2023-04-14T03:21:52.299Z,93700.72
2023-04-14T03:23:05.380Z,93712.91
2023-04-14T03:24:03.285Z,93562.28
2023-04-14T03:25:00.701Z,93704.53
2023-04-14T03:26:00.311Z,93698.50
2023-04-14T03:27:05.718Z,93694.53
2023-04-14T03:28:09.852Z,93696.16
2023-04-14T03:29:10.602Z,93627.28
2023-04-14T03:30:10.183Z,93674.44
2023-04-14T03:31:11.631Z,93676.28
2023-04-14T03:32:10.394Z,93680.00
2023-04-14T03:33:10.120Z,93652.22
2023-04-14T03:34:09.827Z,93676.06
2023-04-14T03:35:08.337Z,93644.06
2023-04-14T03:36:07.614Z,93612.59
2023-04-14T03:37:07.809Z,93619.44
2023-04-14T03:38:09.153Z,93653.31
2023-04-14T03:39:08.168Z,93644.59
2023-04-14T03:40:11.310Z,93651.72
2023-04-14T03:41:10.140Z,93641.69
2023-04-14T03:42:10.881Z,93645.69
2023-04-14T03:43:12.301Z,93644.13
2023-04-14T03:44:15.831Z,93634.06
2023-04-14T03:45:12.970Z,93345.47
2023-04-14T03:46:11.051Z,93632.78
2023-04-14T03:47:09.252Z,93581.44
2023-04-14T03:48:12.584Z,93539.31
2023-04-14T03:49:15.290Z,93602.03
2023-04-14T03:50:15.620Z,93647.00
2023-04-14T03:51:15.979Z,93634.34
2023-04-14T03:52:20.909Z,93583.81
2023-04-14T03:53:20.003Z,93640.94
2023-04-14T03:54:19.691Z,93636.97
2023-04-14T03:55:19.011Z,93635.41
2023-04-14T03:56:17.829Z,93635.38
2023-04-14T03:57:17.814Z,93580.84
2023-04-14T03:58:17.265Z,93634.53
2023-04-14T03:59:18.680Z,93590.59
2023-04-14T04:00:17.742Z,93629.00
2023-04-14T04:01:16.527Z,93642.69
2023-04-14T04:02:16.179Z,93590.78
2023-04-14T04:03:15.675Z,93644.88
2023-04-14T04:04:13.573Z,93532.44
2023-04-14T04:05:11.593Z,93631.16
2023-04-14T04:06:08.504Z,93641.19
2023-04-14T04:07:10.528Z,93596.38
2023-04-14T04:08:09.510Z,93628.69
2023-04-14T04:09:09.476Z,93540.91
2023-04-14T04:10:08.436Z,93624.50
2023-04-14T04:11:08.683Z,93643.56
2023-04-14T04:12:07.140Z,93627.41
2023-04-14T04:13:11.265Z,93629.28
2023-04-14T04:14:09.742Z,93622.59
2023-04-14T04:15:07.598Z,93622.63
2023-04-14T04:16:07.732Z,93633.09
2023-04-14T04:17:08.600Z,93641.25
2023-04-14T04:18:07.852Z,93641.78
2023-04-14T04:19:08.837Z,93643.09
2023-04-14T04:20:10.081Z,93609.28
2023-04-14T04:21:10.687Z,93593.38
2023-04-14T04:22:10.700Z,93646.66
2023-04-14T04:23:10.097Z,93650.59
2023-04-14T04:24:08.791Z,93648.25
2023-04-14T04:25:07.498Z,93651.69
2023-04-14T04:26:04.401Z,93639.94
2023-04-14T04:27:01.558Z,93664.78
2023-04-14T04:27:59.804Z,93666.69
2023-04-14T04:29:00.937Z,93675.34
2023-04-14T04:29:58.646Z,93672.13
2023-04-14T04:30:59.253Z,93670.13
2023-04-14T04:31:57.064Z,93655.47
2023-04-14T04:32:54.142Z,93651.22
2023-04-14T04:33:51.824Z,93670.06
2023-04-14T04:34:50.951Z,93658.78
2023-04-14T04:35:48.161Z,93602.28
2023-04-14T04:36:45.508Z,93634.47
2023-04-14T04:37:43.914Z,93686.34
2023-04-14T04:38:41.165Z,93692.78
2023-04-14T04:39:38.048Z,93689.63
2023-04-14T04:40:38.630Z,93691.97
2023-04-14T04:41:35.500Z,93691.19
2023-04-14T04:42:32.292Z,93692.50
2023-04-14T04:43:29.073Z,93688.22
2023-04-14T04:44:25.812Z,93695.91
2023-04-14T04:45:59.142Z,93685.66
2023-04-14T04:46:56.461Z,93669.81
2023-04-14T04:47:53.280Z,93574.13
2023-04-14T04:48:54.225Z,93630.53
2023-04-14T04:49:50.923Z,93616.47
2023-04-14T04:50:47.826Z,93660.44
2023-04-14T04:51:44.739Z,93649.59
2023-04-14T04:52:43.978Z,93646.44
2023-04-14T04:53:40.841Z,93641.72
2023-04-14T04:54:37.586Z,93667.09
2023-04-14T04:55:34.357Z,93544.03
2023-04-14T04:56:31.674Z,93666.56
2023-04-14T04:57:28.499Z,93606.28
2023-04-14T04:58:25.280Z,93603.63
2023-04-14T04:59:22.373Z,93646.25
2023-04-14T05:00:19.560Z,93547.03
2023-04-14T05:01:16.839Z,93643.84
2023-04-14T05:02:13.644Z,93650.09
2023-04-14T05:03:10.721Z,93613.53
2023-04-14T05:04:07.587Z,93374.41
2023-04-14T05:05:04.998Z,93639.06
2023-04-14T05:06:01.820Z,93579.00
2023-04-14T05:06:58.708Z,93540.19
2023-04-14T05:07:55.515Z,93629.63
2023-04-14T05:08:53.609Z,93634.63
2023-04-14T05:09:52.905Z,93542.53
2023-04-14T05:10:49.710Z,93478.13
2023-04-14T05:11:46.450Z,93559.25
2023-04-14T05:12:43.267Z,93604.69
2023-04-14T05:13:40.200Z,93649.59
2023-04-14T05:14:37.094Z,93599.31
2023-04-14T05:15:33.852Z,93643.59
2023-04-14T05:16:31.551Z,93624.84
2023-04-14T05:17:28.302Z,93617.69
2023-04-14T05:18:25.078Z,93647.84
2023-04-14T05:19:23.871Z,93644.16
2023-04-14T05:20:20.706Z,93641.78
2023-04-14T05:21:17.599Z,93582.56
2023-04-14T05:22:14.312Z,93614.81
2023-04-14T05:23:11.037Z,93628.56
2023-04-14T05:24:09.526Z,93610.56
2023-04-14T05:25:06.566Z,93614.81
2023-04-14T05:26:26.830Z,93616.13
2023-04-14T05:27:22.078Z,93601.56
2023-04-14T05:28:18.882Z,93617.22
2023-04-14T05:29:15.594Z,93617.44
2023-04-14T05:30:12.961Z,93380.97
2023-04-14T05:31:09.870Z,93617.97
2023-04-14T05:32:06.677Z,93604.50
2023-04-14T05:33:06.211Z,93602.63
2023-04-14T05:34:03.246Z,93569.34
2023-04-14T05:35:00.344Z,93611.34
2023-04-14T05:35:57.136Z,93526.53
2023-04-14T05:36:53.863Z,93557.97
2023-04-14T05:37:50.750Z,93584.13
2023-04-14T05:38:47.603Z,93604.75
2023-04-14T05:39:45.023Z,93610.56
2023-04-14T05:40:41.994Z,93604.47
2023-04-14T05:41:38.813Z,93324.50
2023-04-14T05:42:35.804Z,93499.59
2023-04-14T05:43:32.910Z,93594.66
2023-04-14T05:44:29.831Z,93272.06
2023-04-14T05:45:26.805Z,93587.19
2023-04-14T05:46:23.633Z,93579.19
2023-04-14T05:47:20.447Z,93582.72
2023-04-14T05:48:18.029Z,93554.16
2023-04-14T05:49:15.001Z,93572.47
2023-04-14T05:50:11.939Z,93507.72
2023-04-14T05:51:08.704Z,93588.81
2023-04-14T05:52:05.520Z,93580.31
2023-04-14T05:53:02.523Z,93585.56
2023-04-14T05:53:59.358Z,93562.31
2023-04-14T05:54:56.360Z,93587.75
2023-04-14T05:55:53.477Z,93576.16
2023-04-14T05:56:50.256Z,93595.94
2023-04-14T05:57:47.555Z,93556.09
2023-04-14T05:58:44.291Z,93590.34
2023-04-14T05:59:41.988Z,93573.44
2023-04-14T06:00:38.766Z,93517.19
2023-04-14T06:01:35.645Z,93570.03
2023-04-14T06:02:32.660Z,93578.22
2023-04-14T06:03:30.440Z,93530.16
2023-04-14T06:04:27.563Z,93533.66
2023-04-14T06:05:25.267Z,93550.28
2023-04-14T06:06:22.139Z,93567.66
2023-04-14T06:07:18.885Z,93588.88
2023-04-14T06:08:15.722Z,93567.47
2023-04-14T06:09:12.551Z,93567.41
2023-04-14T06:10:10.498Z,93562.44
2023-04-14T06:11:07.241Z,93560.31
2023-04-14T06:12:04.023Z,93569.06
2023-04-14T06:13:01.215Z,93509.63
2023-04-14T06:13:58.922Z,93527.28
2023-04-14T06:14:56.115Z,93545.97
2023-04-14T06:15:52.867Z,93534.25
2023-04-14T06:16:51.159Z,93534.91
2023-04-14T06:17:48.446Z,93487.66
2023-04-14T06:18:45.321Z,93531.75
2023-04-14T06:19:42.289Z,93548.81
2023-04-14T06:20:39.246Z,93549.84
2023-04-14T06:21:36.007Z,93521.91
2023-04-14T06:22:32.812Z,93510.59
2023-04-14T06:23:31.441Z,93511.69
2023-04-14T06:24:28.259Z,93511.34
2023-04-14T06:25:24.988Z,93508.66
2023-04-14T06:26:22.411Z,93524.56
2023-04-14T06:27:19.257Z,93540.28
2023-04-14T06:28:16.089Z,93545.41
2023-04-14T06:29:13.226Z,93543.63
2023-04-14T06:30:10.363Z,93523.81
2023-04-14T06:31:07.265Z,93469.09
2023-04-14T06:32:04.146Z,93514.34
2023-04-14T06:33:04.902Z,93517.38
2023-04-14T06:34:01.857Z,93513.63
2023-04-14T06:34:59.123Z,93515.28
2023-04-14T06:35:56.134Z,93483.09
2023-04-14T06:36:53.140Z,93441.72
2023-04-14T06:37:50.906Z,93467.31
2023-04-14T06:38:47.742Z,93493.75
2023-04-14T06:39:44.477Z,93460.81
2023-04-14T06:40:41.214Z,93513.06
2023-04-14T06:41:37.944Z,93499.50
2023-04-14T06:42:34.676Z,93489.75
2023-04-14T06:43:31.375Z,93488.97
2023-04-14T06:44:28.127Z,93486.34
2023-04-14T06:45:24.936Z,93458.97
2023-04-14T06:46:21.873Z,93500.69
2023-04-14T06:47:19.890Z,93503.75
2023-04-14T06:48:16.637Z,93501.41
2023-04-14T06:49:13.417Z,93484.31
2023-04-14T06:50:10.564Z,93424.19
2023-04-14T06:51:10.684Z,93364.38
2023-04-14T06:52:07.610Z,93463.00
2023-04-14T06:53:06.326Z,93450.03
2023-04-14T06:54:03.578Z,93462.13
2023-04-14T06:55:00.754Z,93426.72
2023-04-14T06:56:00.628Z,93461.00
2023-04-14T06:56:58.930Z,93453.69
2023-04-14T06:57:56.738Z,93436.84
2023-04-14T06:58:53.542Z,93418.03
2023-04-14T06:59:50.834Z,93456.44
2023-04-14T07:00:47.620Z,93413.72
2023-04-14T07:01:44.601Z,93497.38
2023-04-14T07:02:41.526Z,93483.69
2023-04-14T07:03:38.680Z,93452.47
2023-04-14T07:04:37.544Z,93444.88
2023-04-14T07:05:34.568Z,93441.44
2023-04-14T07:06:31.651Z,93428.56
2023-04-14T07:07:28.556Z,93447.50
2023-04-14T07:08:25.897Z,93364.25
2023-04-14T07:09:24.229Z,93475.88
2023-04-14T07:10:21.067Z,93478.28
2023-04-14T07:11:17.796Z,93465.00
2023-04-14T07:12:16.014Z,93471.09
2023-04-14T07:13:12.989Z,93466.25
2023-04-14T07:14:09.731Z,93465.78
2023-04-14T07:15:07.243Z,93430.56
2023-04-14T07:16:06.520Z,93465.50
2023-04-14T07:17:03.348Z,93462.09
2023-04-14T07:18:00.287Z,93453.63
2023-04-14T07:18:57.081Z,93459.28
2023-04-14T07:19:53.914Z,93461.00
2023-04-14T07:20:54.533Z,93373.72
2023-04-14T07:21:51.302Z,93376.53
2023-04-14T07:22:48.074Z,93356.34
2023-04-14T07:23:44.841Z,93471.94
2023-04-14T07:24:41.631Z,93368.50
2023-04-14T07:25:38.358Z,93364.66
2023-04-14T07:26:35.090Z,93459.34
2023-04-14T07:27:32.009Z,93474.22
2023-04-14T07:28:28.885Z,93456.56
2023-04-14T07:29:27.324Z,93460.13
2023-04-14T07:30:24.189Z,93427.47
2023-04-14T07:31:21.209Z,93447.63
2023-04-14T07:32:18.426Z,93450.94
2023-04-14T07:33:19.295Z,93452.72
2023-04-14T07:34:16.333Z,93479.88
2023-04-14T07:35:13.989Z,93439.91
2023-04-14T07:36:10.964Z,93462.88
2023-04-14T07:37:07.742Z,93454.59
2023-04-14T07:38:04.685Z,93443.16
2023-04-14T07:39:01.652Z,93397.97
2023-04-14T07:39:58.988Z,93419.75
2023-04-14T07:40:55.769Z,93440.13
2023-04-14T07:41:52.649Z,93456.38
2023-04-14T07:42:49.465Z,93370.31
2023-04-14T07:43:46.534Z,93451.25
2023-04-14T07:44:43.264Z,93408.69
2023-04-14T07:45:40.086Z,93367.13
2023-04-14T07:46:36.941Z,93396.63
2023-04-14T07:47:34.010Z,93413.78
2023-04-14T07:48:31.957Z,93403.03
2023-04-14T07:49:28.800Z,93384.69
2023-04-14T07:50:26.028Z,93391.31
2023-04-14T07:51:22.846Z,93451.84
2023-04-14T07:52:19.674Z,93446.75
2023-04-14T07:53:16.468Z,93388.97
2023-04-14T07:54:13.325Z,93443.22
2023-04-14T07:55:10.190Z,93435.13
2023-04-14T07:56:07.098Z,93419.34
2023-04-14T07:57:03.889Z,93412.19
2023-04-14T07:58:00.588Z,93368.88
2023-04-14T07:58:57.737Z,93421.75
2023-04-14T07:59:54.517Z,93422.69
2023-04-14T08:00:51.563Z,93381.31
2023-04-14T08:01:48.711Z,93395.47
2023-04-14T08:02:45.637Z,93406.91
2023-04-14T08:03:44.728Z,93382.44
2023-04-14T08:04:43.204Z,93415.50
2023-04-14T08:05:40.301Z,93422.50
2023-04-14T08:06:37.282Z,93385.41
2023-04-14T08:07:34.067Z,93409.63
2023-04-14T08:08:30.881Z,93412.31
2023-04-14T08:09:27.629Z,93386.72
2023-04-14T08:10:24.560Z,93363.53
2023-04-14T08:11:21.491Z,93406.38
2023-04-14T08:12:18.221Z,93398.31
2023-04-14T08:13:15.045Z,93408.53
2023-04-14T08:14:11.843Z,93426.31
2023-04-14T08:15:09.742Z,93364.50
2023-04-14T08:16:06.793Z,93411.78
2023-04-14T08:17:03.717Z,93415.44
2023-04-14T08:18:00.519Z,93404.59
2023-04-14T08:19:00.212Z,93421.59
2023-04-14T08:19:57.381Z,93391.47
2023-04-14T08:20:54.196Z,93394.88
2023-04-14T08:21:52.150Z,93411.56
2023-04-14T08:22:48.990Z,93425.44
2023-04-14T08:23:46.116Z,93414.28
2023-04-14T08:24:42.847Z,93413.53
2023-04-14T08:25:39.668Z,93407.56
2023-04-14T08:26:36.386Z,93408.91
2023-04-14T08:27:33.140Z,93421.25
2023-04-14T08:28:30.397Z,93426.28
2023-04-14T08:29:27.307Z,93388.16
2023-04-14T08:30:24.336Z,93436.72
2023-04-14T08:31:25.245Z,93424.53
2023-04-14T08:32:22.370Z,93442.19
2023-04-14T08:33:19.197Z,93438.97
2023-04-14T08:34:21.185Z,93433.63
2023-04-14T08:35:35.270Z,93441.03
2023-04-14T08:36:33.528Z,93436.16
2023-04-14T08:37:30.448Z,93443.75
2023-04-14T08:38:28.143Z,93451.84
2023-04-14T08:39:25.010Z,93447.91
2023-04-14T08:40:23.332Z,93401.19
2023-04-14T08:41:22.888Z,93411.38
2023-04-14T08:42:21.543Z,93449.88
2023-04-14T08:43:18.761Z,93466.22
2023-04-14T08:44:15.683Z,93445.19
2023-04-14T08:45:14.992Z,93393.09
2023-04-14T08:46:14.159Z,93462.66
2023-04-14T08:47:11.533Z,93428.88
2023-04-14T08:48:09.663Z,93480.72
2023-04-14T08:49:12.350Z,93462.00
2023-04-14T08:50:22.403Z,93415.81
2023-04-14T08:51:22.251Z,93460.25
2023-04-14T08:52:23.365Z,93462.56
2023-04-14T08:53:23.669Z,93464.28
2023-04-14T08:54:21.667Z,93436.75
2023-04-14T08:55:19.308Z,93474.75
2023-04-14T08:56:18.719Z,93449.88
2023-04-14T08:57:20.146Z,93469.41
2023-04-14T08:58:17.261Z,93471.47
2023-04-14T08:59:14.274Z,93457.28
2023-04-14T09:00:11.684Z,93361.31
2023-04-14T09:01:09.645Z,93454.16
2023-04-14T09:02:07.175Z,93441.88
2023-04-14T09:03:05.000Z,93405.66
2023-04-14T09:04:04.788Z,93394.50
2023-04-14T09:05:02.425Z,93447.72
2023-04-14T09:06:00.166Z,93440.75
2023-04-14T09:07:00.629Z,93442.16
2023-04-14T09:07:58.112Z,93444.84
2023-04-14T09:08:55.332Z,93432.81
2023-04-14T09:09:53.001Z,93412.69
2023-04-14T09:10:51.259Z,93434.19
2023-04-14T09:11:48.568Z,93387.56
2023-04-14T09:12:45.692Z,93431.66
2023-04-14T09:13:44.841Z,93458.03
2023-04-14T09:14:46.515Z,93431.00
2023-04-14T09:15:44.046Z,93438.31
2023-04-14T09:16:41.166Z,93437.50
2023-04-14T09:17:37.922Z,93452.88
2023-04-14T09:18:36.544Z,93429.50
2023-04-14T09:19:35.248Z,93436.19
2023-04-14T09:20:35.322Z,93440.84
2023-04-14T09:21:53.830Z,93437.31
2023-04-14T09:22:52.850Z,93388.81
2023-04-14T09:23:49.957Z,93440.75
2023-04-14T09:24:48.438Z,93424.38
2023-04-14T09:25:45.315Z,93378.78
2023-04-14T09:26:42.786Z,93417.59
2023-04-14T09:27:40.387Z,93431.16
2023-04-14T09:28:37.946Z,93412.78
2023-04-14T09:29:34.832Z,93454.16
2023-04-14T09:30:32.335Z,93449.16
2023-04-14T09:31:29.892Z,93456.53
2023-04-14T09:32:26.751Z,93388.28
2023-04-14T09:33:23.989Z,93442.91
2023-04-14T09:34:21.575Z,93414.00
2023-04-14T09:35:18.415Z,93433.53
2023-04-14T09:36:20.630Z,93454.53
2023-04-14T09:37:17.673Z,93386.28
2023-04-14T09:38:15.224Z,93452.00
2023-04-14T09:39:18.096Z,93402.00
2023-04-14T09:40:35.174Z,93448.88
2023-04-14T09:41:32.608Z,93404.97
2023-04-14T09:42:40.609Z,93435.91
2023-04-14T09:43:37.366Z,93455.06
2023-04-14T09:44:34.083Z,93451.03
2023-04-14T09:45:45.799Z,93444.47
2023-04-14T09:47:02.292Z,93468.53
2023-04-14T09:48:08.770Z,93475.47
2023-04-14T09:49:07.052Z,93410.97
2023-04-14T09:50:04.489Z,93455.94
2023-04-14T09:51:06.671Z,93412.19
2023-04-14T09:52:07.464Z,93466.19
2023-04-14T09:53:04.480Z,93446.75
2023-04-14T09:54:03.691Z,93448.63
2023-04-14T09:55:00.766Z,93445.97
2023-04-14T09:56:00.055Z,93484.06
2023-04-14T09:56:59.844Z,93470.66
2023-04-14T09:57:56.840Z,93400.66
2023-04-14T09:59:01.039Z,93476.53
2023-04-14T09:59:58.073Z,93483.28
2023-04-14T10:00:55.965Z,93459.50
2023-04-14T10:01:52.882Z,93487.78
2023-04-14T10:02:52.291Z,93474.72
2023-04-14T10:03:50.734Z,93501.75
2023-04-14T10:05:05.043Z,93514.94
2023-04-14T10:06:04.838Z,93486.41
2023-04-14T10:07:01.987Z,93528.81
2023-04-14T10:08:05.956Z,93518.19
2023-04-14T10:09:02.934Z,93509.38
2023-04-14T10:10:07.721Z,93520.28
2023-04-14T10:11:25.964Z,93544.22
2023-04-14T10:12:22.802Z,93493.97
2023-04-14T10:13:20.076Z,93506.13
2023-04-14T10:14:18.012Z,93523.47
2023-04-14T10:15:15.565Z,93565.16
2023-04-14T10:16:12.542Z,93467.72
2023-04-14T10:17:10.464Z,93557.13
2023-04-14T10:18:07.425Z,93539.16
2023-04-14T10:19:04.519Z,93511.44
2023-04-14T10:20:01.501Z,93550.69
2023-04-14T10:21:01.435Z,93530.97
2023-04-14T10:21:59.453Z,93555.38
2023-04-14T10:22:57.034Z,93547.22
2023-04-14T10:23:57.043Z,93486.25
2023-04-14T10:24:54.214Z,93546.72
2023-04-14T10:25:52.225Z,93586.84
2023-04-14T10:26:49.711Z,93604.75
2023-04-14T10:27:47.432Z,93593.50
2023-04-14T10:28:45.871Z,93569.84
2023-04-14T10:29:42.715Z,93603.78
2023-04-14T10:30:41.184Z,93636.47
2023-04-14T10:31:42.728Z,93629.19
2023-04-14T10:32:42.840Z,93629.69
2023-04-14T10:33:40.480Z,93634.50
2023-04-14T10:34:42.034Z,93679.00
2023-04-14T10:35:46.572Z,93672.66
2023-04-14T10:36:44.381Z,93683.59
2023-04-14T10:37:50.387Z,93682.13
2023-04-14T10:38:47.274Z,93704.66
2023-04-14T10:39:53.236Z,93658.53
2023-04-14T10:40:52.643Z,93729.78
2023-04-14T10:41:52.482Z,93701.75
2023-04-14T10:42:56.617Z,93727.41
2023-04-14T10:43:53.585Z,93767.25
2023-04-14T10:45:12.744Z,93772.03
2023-04-14T10:46:10.223Z,93774.31
2023-04-14T10:47:10.877Z,93777.44
2023-04-14T10:48:11.681Z,93772.06
2023-04-14T10:49:12.257Z,93788.09
2023-04-14T10:50:13.580Z,93780.34
2023-04-14T10:51:10.715Z,93730.88
2023-04-14T10:52:27.764Z,93803.16
2023-04-14T10:53:25.578Z,93759.47
2023-04-14T10:54:22.319Z,93781.44
2023-04-14T10:55:22.749Z,93808.75
2023-04-14T10:56:25.043Z,93773.25
2023-04-14T10:57:26.777Z,93816.66
2023-04-14T10:58:29.324Z,93819.81
2023-04-14T10:59:28.999Z,93699.97
2023-04-14T11:00:29.008Z,93821.19
2023-04-14T11:01:30.989Z,93828.88
2023-04-14T11:02:33.263Z,93830.72
2023-04-14T11:03:44.904Z,93834.97
2023-04-14T11:05:11.610Z,93849.78
2023-04-14T11:06:12.612Z,93843.72
2023-04-14T11:07:09.573Z,93848.72
2023-04-14T11:08:14.789Z,93848.19
2023-04-14T11:09:25.199Z,93859.88
2023-04-14T11:10:24.829Z,93861.47
2023-04-14T11:11:28.252Z,93869.41
2023-04-14T11:12:31.482Z,93865.16
2023-04-14T11:13:30.885Z,93818.53
2023-04-14T11:14:30.647Z,93865.16
2023-04-14T11:15:49.435Z,93877.59
2023-04-14T11:16:58.818Z,93889.00
2023-04-14T11:18:12.115Z,93890.84
2023-04-14T11:19:15.501Z,93895.31
2023-04-14T11:20:16.484Z,93902.75
2023-04-14T11:21:16.229Z,93894.78
2023-04-14T11:22:13.185Z,93889.25
2023-04-14T11:23:12.708Z,93867.53
2023-04-14T11:24:10.668Z,93905.13
2023-04-14T11:25:11.017Z,93908.03
2023-04-14T11:26:13.989Z,93909.38
2023-04-14T11:27:11.796Z,93794.56
2023-04-14T11:28:08.892Z,93911.94
2023-04-14T11:29:11.898Z,93911.56
2023-04-14T11:30:14.298Z,93909.97
2023-04-14T11:31:13.249Z,93887.84
2023-04-14T11:32:10.120Z,93849.59
2023-04-14T11:33:07.364Z,93916.34
2023-04-14T11:34:08.143Z,93924.81
2023-04-14T11:35:07.899Z,93855.38
2023-04-14T11:36:07.340Z,93931.31
2023-04-14T11:37:04.981Z,93907.16
2023-04-14T11:38:01.978Z,93933.94
2023-04-14T11:39:04.191Z,93948.22